createdAt,value
2018-04-06T06:45:16.048Z,14.80
2018-04-06T06:47:42.048Z,19.10
2018-04-06T06:50:08.015Z,41.90
2018-04-06T06:52:33.996Z,82.23
2018-04-06T06:54:59.947Z,91.77
2018-04-06T06:57:25.915Z,68.03
2018-04-06T06:59:51.896Z,86.33
2018-04-06T07:02:17.908Z,80.60
2018-04-06T07:04:43.888Z,79.83
2018-04-06T07:07:09.880Z,104.83
2018-04-06T07:09:35.877Z,106.67
2018-04-06T07:12:01.876Z,102.90
2018-04-06T07:14:27.868Z,88.57
2018-04-06T07:16:55.643Z,112.17
2018-04-06T07:19:21.745Z,103.47
2018-04-06T07:21:47.768Z,110.70
2018-04-06T07:24:13.756Z,98.83
2018-04-06T07:26:39.752Z,105.67
2018-04-06T07:29:05.758Z,133.60
2018-04-06T07:31:31.735Z,127.23
2018-04-06T07:33:58.533Z,123.43
2018-04-06T07:36:24.540Z,124.80
2018-04-06T07:38:50.544Z,136.20
2018-04-06T07:41:16.533Z,247.27
2018-04-06T07:43:42.511Z,189.30
2018-04-06T07:46:08.504Z,209.67
2018-04-06T07:48:34.513Z,233.27
2018-04-06T07:51:00.500Z,235.23
2018-04-06T07:53:26.753Z,229.83
2018-04-06T07:55:52.740Z,276.13
2018-04-06T07:58:18.739Z,247.43
2018-04-06T08:00:44.748Z,379.97
2018-04-06T08:03:10.749Z,392.23
2018-04-06T08:05:36.738Z,378.83
2018-04-06T08:08:02.736Z,403.80
2018-04-06T08:10:28.737Z,359.50
2018-04-06T08:12:54.744Z,349.40
2018-04-06T08:15:20.729Z,317.43
2018-04-06T08:17:46.729Z,322.13
2018-04-06T08:20:12.720Z,329.70
2018-04-06T08:22:38.720Z,332.07
2018-04-06T08:25:04.708Z,287.70
2018-04-06T08:27:30.712Z,276.43
2018-04-06T08:29:56.744Z,297.13
2018-04-06T08:32:22.737Z,280.87
2018-04-06T08:34:49.481Z,330.73
2018-04-06T08:37:15.484Z,321.77
2018-04-06T08:39:41.478Z,398.60
2018-04-06T08:42:07.480Z,351.60
2018-04-06T08:44:33.524Z,392.17
2018-04-06T08:46:59.504Z,328.80
2018-04-06T08:49:25.531Z,331.60
2018-04-06T08:51:51.510Z,343.67
2018-04-06T08:54:17.639Z,352.33
2018-04-06T08:56:43.632Z,296.23
2018-04-06T08:59:09.634Z,298.47
2018-04-06T09:01:35.624Z,298.40
2018-04-06T09:04:02.382Z,275.70
2018-04-06T09:06:28.364Z,275.17
2018-04-06T09:08:54.365Z,250.63
2018-04-06T09:11:20.352Z,261.83
2018-04-06T09:13:46.356Z,240.57
2018-04-06T09:16:12.353Z,227.97
2018-04-06T09:18:38.356Z,215.37
2018-04-06T09:21:04.355Z,232.73
2018-04-06T09:23:30.341Z,213.00
2018-04-06T09:25:56.360Z,198.10
2018-04-06T09:28:23.109Z,183.67
2018-04-06T09:30:49.122Z,180.30
2018-04-06T09:33:15.863Z,189.80
2018-04-06T09:35:41.872Z,188.50
2018-04-06T09:38:07.860Z,205.83
2018-04-06T09:40:33.856Z,185.53
2018-04-06T09:42:59.856Z,196.67
2018-04-06T09:45:25.852Z,184.33
2018-04-06T09:47:51.853Z,186.90
2018-04-06T09:50:17.848Z,246.30
2018-04-06T09:52:43.848Z,235.00
2018-04-06T09:55:09.855Z,410.97
2018-04-06T09:57:35.840Z,193.17
2018-04-06T10:00:01.844Z,284.40
2018-04-06T10:02:27.844Z,300.70
2018-04-06T10:04:53.819Z,336.57
2018-04-06T10:07:19.836Z,330.77
2018-04-06T10:09:45.816Z,354.33
2018-04-06T10:12:11.829Z,350.70
2018-04-06T10:14:38.745Z,294.57
2018-04-06T10:17:04.747Z,317.73
2018-04-06T10:19:30.736Z,289.90
2018-04-06T10:21:56.777Z,376.67
2018-04-06T10:24:22.733Z,322.30
2018-04-06T10:26:48.738Z,262.33
2018-04-06T10:29:14.762Z,281.80
2018-04-06T10:31:40.768Z,217.43
2018-04-06T10:34:06.777Z,127.77
2018-04-06T10:36:32.796Z,163.27
2018-04-06T10:38:58.780Z,112.17
2018-04-06T10:41:24.781Z,100.53
2018-04-06T10:43:50.782Z,187.20
2018-04-06T10:46:16.860Z,253.47
2018-04-06T10:48:42.894Z,193.03
2018-04-06T10:51:09.645Z,166.80
2018-04-06T10:53:35.600Z,129.03
2018-04-06T10:56:03.145Z,123.70
2018-04-06T10:58:29.185Z,117.50
2018-04-06T11:00:55.192Z,97.43
2018-04-06T11:03:21.170Z,93.23
2018-04-06T11:05:49.032Z,89.27
2018-04-06T11:08:15.074Z,80.77
2018-04-06T11:10:41.115Z,77.53
2018-04-06T11:13:07.132Z,74.40
2018-04-06T11:15:33.122Z,68.83
2018-04-06T11:17:59.121Z,60.30
2018-04-06T11:20:25.116Z,62.87
2018-04-06T11:22:51.116Z,65.00
2018-04-06T11:25:17.104Z,59.13
2018-04-06T11:27:44.989Z,77.00
2018-04-06T11:30:11.351Z,71.13
2018-04-06T11:32:37.388Z,128.83
2018-04-06T11:35:03.385Z,111.47
2018-04-06T11:37:29.399Z,105.80
2018-04-06T11:39:55.384Z,88.40
2018-04-06T11:42:21.447Z,81.10
2018-04-06T11:44:47.440Z,82.57
2018-04-06T11:47:13.427Z,87.40
2018-04-06T11:49:39.424Z,107.20
2018-04-06T11:52:05.415Z,109.37
2018-04-06T11:54:31.429Z,102.97
2018-04-06T11:56:57.417Z,103.18
2018-04-06T11:59:23.426Z,103.60
2018-04-06T12:01:49.424Z,87.57
2018-04-06T12:04:16.168Z,85.17
2018-04-06T12:06:42.161Z,73.27
2018-04-06T12:09:08.185Z,71.23
2018-04-06T12:11:34.172Z,69.60
2018-04-06T12:14:00.168Z,60.53
2018-04-06T12:16:26.152Z,47.13
2018-04-06T12:18:52.148Z,65.55
2018-04-06T12:21:18.132Z,66.03
2018-04-06T12:23:44.204Z,61.60
2018-04-06T12:26:10.193Z,117.33
2018-04-06T12:28:36.225Z,112.17
2018-04-06T12:31:02.192Z,120.28
2018-04-06T12:33:28.209Z,111.13
2018-04-06T12:35:54.201Z,86.90
2018-04-06T12:38:20.198Z,90.60
2018-04-06T12:40:46.208Z,87.87
2018-04-06T12:43:12.201Z,84.10
2018-04-06T12:45:38.213Z,87.43
2018-04-06T12:48:04.201Z,76.23
2018-04-06T12:50:30.215Z,71.12
2018-04-06T12:52:56.212Z,71.13
2018-04-06T12:55:22.220Z,67.72
2018-04-06T12:57:48.212Z,63.20
2018-04-06T13:00:14.212Z,63.37
2018-04-06T13:02:40.192Z,63.83
2018-04-06T13:05:06.200Z,49.67
2018-04-06T13:07:32.181Z,70.53
2018-04-06T13:09:58.185Z,79.75
2018-04-06T13:12:24.182Z,110.07
2018-04-06T13:14:50.940Z,127.20
2018-04-06T13:17:16.917Z,128.57
2018-04-06T13:19:42.928Z,129.43
2018-04-06T13:22:08.917Z,116.10
2018-04-06T13:24:34.946Z,104.93
2018-04-06T13:27:00.940Z,111.22
2018-04-06T13:29:27.688Z,84.47
2018-04-06T13:31:53.689Z,84.93
2018-04-06T13:34:20.421Z,65.43
2018-04-06T13:36:46.425Z,78.67
2018-04-06T13:39:13.155Z,77.45
2018-04-06T13:41:39.154Z,54.47
2018-04-06T13:44:05.159Z,54.83
2018-04-06T13:46:31.180Z,43.00
2018-04-06T13:48:57.172Z,40.67
2018-04-06T13:51:23.185Z,26.93
2018-04-06T13:53:49.186Z,61.13
2018-04-06T13:56:15.201Z,187.77
2018-04-06T13:58:41.208Z,121.18
2018-04-06T14:01:07.332Z,138.10
2018-04-06T14:03:33.233Z,136.70
2018-04-06T14:05:59.426Z,166.50
2018-04-06T14:08:25.640Z,135.03
2018-04-06T14:10:51.803Z,126.97
2018-04-06T14:13:18.097Z,105.53
2018-04-06T14:15:44.416Z,113.67
2018-04-06T14:18:10.427Z,108.47
2018-04-06T14:20:36.412Z,65.00
2018-04-06T14:23:02.416Z,71.63
2018-04-06T14:25:28.412Z,61.75
2018-04-06T14:27:54.420Z,55.80
2018-04-06T14:30:20.425Z,56.55
2018-04-06T14:32:46.424Z,46.87
2018-04-06T14:35:12.417Z,45.87
2018-04-06T14:37:38.432Z,50.47
2018-04-06T14:40:04.413Z,43.78
2018-04-06T14:42:30.412Z,37.53
2018-04-06T14:44:56.401Z,49.17
2018-04-06T14:47:22.397Z,47.43
2018-04-06T14:49:48.385Z,47.97
2018-04-06T14:52:14.399Z,46.97
2018-04-06T14:54:40.380Z,51.03
2018-04-06T14:57:06.380Z,41.20
2018-04-06T14:59:32.373Z,35.83
2018-04-06T15:01:58.388Z,34.10
2018-04-06T15:04:24.386Z,31.70
2018-04-06T15:06:50.372Z,26.40
2018-04-06T15:09:16.368Z,25.87
2018-04-06T15:11:42.357Z,23.03
2018-04-06T15:14:08.360Z,24.20
2018-04-06T15:16:34.369Z,19.43
2018-04-06T15:19:00.380Z,24.87
2018-04-06T15:21:26.369Z,22.33
2018-04-06T15:23:52.384Z,18.90
2018-04-06T15:26:19.105Z,19.47
2018-04-06T15:28:45.116Z,15.07
2018-04-06T15:31:11.125Z,21.87
2018-04-06T15:33:37.123Z,18.70
2018-04-06T15:36:03.111Z,21.07
2018-04-06T15:38:29.109Z,22.80
2018-04-06T15:40:55.153Z,27.43
2018-04-06T15:43:21.157Z,28.10
2018-04-06T15:45:47.148Z,39.07
2018-04-06T15:48:13.161Z,42.10
2018-04-06T15:50:39.164Z,41.00
2018-04-06T15:53:05.143Z,42.43
2018-04-06T15:55:31.156Z,52.13
2018-04-06T15:57:57.152Z,54.20
2018-04-06T16:00:23.174Z,56.07
2018-04-06T16:02:49.724Z,45.03
2018-04-06T16:05:15.731Z,77.33
2018-04-06T16:07:41.732Z,77.63
2018-04-06T16:10:07.739Z,76.13
2018-04-06T16:12:33.751Z,81.60
2018-04-06T16:14:59.784Z,72.03
2018-04-06T16:17:26.515Z,48.43
2018-04-06T16:19:52.532Z,64.90
2018-04-06T16:22:18.516Z,58.53
2018-04-06T16:24:44.532Z,58.50
2018-04-06T16:27:10.537Z,63.50
2018-04-06T16:29:36.573Z,51.07
2018-04-06T16:32:02.572Z,60.07
2018-04-06T16:34:28.580Z,66.73
2018-04-06T16:36:54.559Z,63.30
2018-04-06T16:39:20.569Z,56.23
2018-04-06T16:41:46.572Z,52.77
2018-04-06T16:44:12.561Z,55.10
2018-04-06T16:46:38.556Z,51.70
2018-04-06T16:49:04.540Z,50.90
2018-04-06T16:51:30.536Z,51.93
2018-04-06T16:53:56.528Z,50.83
2018-04-06T16:56:22.523Z,50.13
2018-04-06T16:58:48.555Z,50.93
2018-04-06T17:01:15.257Z,50.03
2018-04-06T17:03:41.248Z,50.93
2018-04-06T17:06:07.252Z,44.37
2018-04-06T17:08:33.232Z,44.37
2018-04-06T17:10:59.236Z,52.50
2018-04-06T17:13:25.222Z,44.80
2018-04-06T17:15:51.224Z,46.73
2018-04-06T17:18:24.197Z,45.03
2018-04-06T17:20:50.200Z,41.20
2018-04-06T17:23:16.192Z,43.07
2018-04-06T17:25:42.213Z,44.03
2018-04-06T17:28:08.212Z,38.83
2018-04-06T17:30:34.212Z,43.93
2018-04-06T17:33:00.233Z,37.80
2018-04-06T17:35:26.216Z,44.00
2018-04-06T17:37:52.187Z,35.17
2018-04-06T17:40:18.172Z,38.63
2018-04-06T17:42:44.173Z,34.60
2018-04-06T17:45:10.159Z,38.50
2018-04-06T17:47:36.156Z,34.93
2018-04-06T17:50:02.169Z,35.37
2018-04-06T17:52:28.176Z,37.97
2018-04-06T17:54:54.157Z,35.63
2018-04-06T17:57:20.159Z,36.83
2018-04-06T17:59:46.140Z,34.60
2018-04-06T18:02:12.137Z,33.40
2018-04-06T18:04:38.124Z,31.40
2018-04-06T18:07:04.123Z,30.10
2018-04-06T18:09:30.840Z,32.83
2018-04-06T18:11:56.836Z,33.17
2018-04-06T18:14:22.819Z,32.00
2018-04-06T18:16:49.561Z,27.60
2018-04-06T18:19:15.555Z,31.67
2018-04-06T18:21:41.546Z,29.83
2018-04-06T18:24:07.557Z,33.63
2018-04-06T18:26:33.536Z,30.53
2018-04-06T18:28:59.560Z,30.97
2018-04-06T18:31:25.557Z,27.73
2018-04-06T18:33:51.568Z,34.80
2018-04-06T18:36:17.548Z,29.03
2018-04-06T18:38:43.567Z,25.63
2018-04-06T18:41:09.553Z,29.27
2018-04-06T18:43:35.557Z,25.93
2018-04-06T18:46:01.537Z,25.73
2018-04-06T18:48:27.548Z,31.33
2018-04-06T18:50:54.284Z,29.60
2018-04-06T18:53:20.284Z,29.73
2018-04-06T18:55:46.276Z,30.20
2018-04-06T18:58:12.281Z,28.80
2018-04-06T19:00:38.273Z,26.43
2018-04-06T19:03:04.288Z,26.60
2018-04-06T19:05:30.267Z,24.07
2018-04-06T19:07:56.262Z,26.60
2018-04-06T19:10:22.284Z,22.90
2018-04-06T19:12:48.272Z,27.60
2018-04-06T19:15:14.272Z,26.53
2018-04-06T19:17:40.255Z,27.63
2018-04-06T19:20:06.264Z,27.07
2018-04-06T19:22:32.266Z,24.07
2018-04-06T19:24:58.281Z,24.73
2018-04-06T19:27:25.043Z,26.43
2018-04-06T19:29:51.032Z,21.33
2018-04-06T19:32:17.021Z,26.30
2018-04-06T19:34:43.024Z,22.37
2018-04-06T19:37:09.013Z,22.20
2018-04-06T19:39:35.021Z,21.73
2018-04-06T19:42:01.012Z,24.80
2018-04-06T19:44:26.992Z,21.40
2018-04-06T19:46:52.996Z,21.20
2018-04-06T19:49:18.985Z,23.17
2018-04-06T19:51:44.980Z,21.17
2018-04-06T19:54:10.967Z,22.10
2018-04-06T19:56:36.986Z,23.20
2018-04-06T19:59:02.947Z,22.40
2018-04-06T20:01:28.939Z,22.97
2018-04-06T20:03:54.926Z,23.17
2018-04-06T20:06:20.920Z,19.93
2018-04-06T20:08:46.905Z,18.63
2018-04-06T20:11:12.901Z,23.10
2018-04-06T20:13:38.885Z,22.37
2018-04-06T20:16:04.905Z,19.23
2018-04-06T20:18:30.884Z,23.30
2018-04-06T20:20:56.864Z,21.13
2018-04-06T20:23:22.868Z,20.73
2018-04-06T20:25:48.848Z,20.73
2018-04-06T20:28:14.872Z,22.33
2018-04-06T20:30:40.859Z,20.83
2018-04-06T20:33:06.856Z,21.90
2018-04-06T20:35:32.840Z,18.30
2018-04-06T20:37:58.851Z,21.37
2018-04-06T20:40:24.837Z,19.30
2018-04-06T20:42:50.835Z,17.30
2018-04-06T20:45:16.821Z,18.30
2018-04-06T20:47:42.817Z,18.33
2018-04-06T20:50:08.804Z,17.73
2018-04-06T20:52:35.547Z,20.03
2018-04-06T20:55:01.531Z,19.80
2018-04-06T20:57:27.516Z,17.63
2018-04-06T20:59:53.508Z,20.00
2018-04-06T21:02:19.496Z,14.17
2018-04-06T21:04:45.499Z,19.47
2018-04-06T21:07:11.489Z,17.77
2018-04-06T21:09:38.225Z,18.80
2018-04-06T21:12:04.213Z,16.93
2018-04-06T21:14:30.223Z,18.03
2018-04-06T21:16:56.201Z,18.40
2018-04-06T21:19:22.197Z,17.37
2018-04-06T21:21:48.200Z,15.73
2018-04-06T21:24:14.200Z,18.57
2018-04-06T21:26:40.196Z,14.20
2018-04-06T21:29:06.216Z,15.23
2018-04-06T21:31:32.225Z,16.70
2018-04-06T21:33:58.203Z,16.13
2018-04-06T21:36:24.192Z,16.23
2018-04-06T21:38:50.191Z,14.80
2018-04-06T21:41:16.180Z,15.50
2018-04-06T21:43:42.159Z,16.20
2018-04-06T21:46:08.171Z,17.67
2018-04-06T21:48:34.168Z,14.60
2018-04-06T21:51:00.176Z,14.17
2018-04-06T21:53:26.164Z,17.40
2018-04-06T21:55:52.172Z,13.50
2018-04-06T21:58:18.157Z,15.40
2018-04-06T22:00:44.172Z,15.57
2018-04-06T22:03:10.167Z,12.50
2018-04-06T22:05:36.160Z,17.07
2018-04-06T22:08:02.149Z,14.43
2018-04-06T22:10:28.160Z,14.87
2018-04-06T22:12:54.151Z,14.90
2018-04-06T22:15:20.156Z,15.90
2018-04-06T22:17:46.151Z,14.50
2018-04-06T22:20:12.153Z,13.60
2018-04-06T22:22:38.875Z,13.50
2018-04-06T22:25:04.864Z,14.10
2018-04-06T22:27:30.873Z,14.50
2018-04-06T22:29:56.884Z,14.03
2018-04-06T22:32:22.880Z,14.97
2018-04-06T22:34:48.868Z,12.57
2018-04-06T22:37:14.868Z,14.00
2018-04-06T22:39:40.853Z,11.33
2018-04-06T22:42:06.858Z,11.10
2018-04-06T22:44:32.835Z,11.93
2018-04-06T22:46:58.833Z,12.73
2018-04-06T22:49:25.565Z,12.50
2018-04-06T22:51:51.563Z,14.57
2018-04-06T22:54:17.544Z,10.93
2018-04-06T22:56:43.540Z,12.43
2018-04-06T22:59:09.524Z,12.87
2018-04-06T23:01:35.525Z,11.53
2018-04-06T23:04:01.508Z,13.23
2018-04-06T23:06:27.513Z,11.10
2018-04-06T23:08:53.504Z,13.40
2018-04-06T23:11:19.519Z,13.47
2018-04-06T23:13:45.509Z,11.57
2018-04-06T23:16:12.228Z,12.43
2018-04-06T23:18:38.227Z,11.50
2018-04-06T23:21:04.208Z,13.40
2018-04-06T23:23:30.212Z,12.53
2018-04-06T23:25:56.205Z,10.67
2018-04-06T23:28:22.204Z,12.70
2018-04-06T23:30:48.208Z,11.53
2018-04-06T23:33:14.214Z,11.73
2018-04-06T23:35:40.208Z,10.63
2018-04-06T23:38:06.232Z,9.20
2018-04-06T23:40:32.224Z,12.00
2018-04-06T23:42:58.235Z,12.43
2018-04-06T23:45:24.214Z,10.90
2018-04-06T23:47:50.234Z,11.20
2018-04-06T23:50:16.212Z,12.17
2018-04-06T23:52:42.208Z,8.77
2018-04-06T23:55:08.191Z,11.93
2018-04-06T23:57:34.213Z,10.30
